Time;durP1;ratioP1;P1;durP2;ratioP2;P2;SDS_P1;SDS_P2;PMS_P1;PMS_P2;Temp;Humidity;BMP_temperature;BMP_pressure;BME280_temperature;BME280_humidity;BME280_pressure;Samples;Min_cycle;Max_cycle;Signal;HPM_P1;HPM_P2
2022/12/09 00:01:40;;;;;;;26.20;10.70;;;;;;;2.36;69.71;98350.55;103436;1291;108194;-68
2022/12/09 00:04:08;;;;;;;24.80;11.50;;;;;;;2.37;69.39;98350.48;103485;1291;97962;-67
2022/12/09 00:06:41;;;;;;;25.30;10.00;;;;;;;2.39;69.35;98351.12;103499;1298;97864;-67
2022/12/09 00:09:17;;;;;;;24.20;9.90;;;;;;;2.41;69.34;98350.52;103411;1298;111877;-68
2022/12/09 00:11:45;;;;;;;25.00;10.90;;;;;;;2.40;69.42;98351.95;103374;1291;97966;-68
2022/12/09 00:14:13;;;;;;;24.30;9.70;;;;;;;2.41;69.74;98353.66;103476;1299;106088;-69
2022/12/09 00:16:44;;;;;;;23.40;9.70;;;;;;;2.42;69.30;98354.13;103500;1292;97829;-67
2022/12/09 00:19:14;;;;;;;25.10;10.50;;;;;;;2.43;69.62;98354.60;103517;1291;97901;-67
2022/12/09 00:21:43;;;;;;;23.90;10.00;;;;;;;2.45;69.32;98352.59;103485;1298;111806;-68
2022/12/09 00:24:15;;;;;;;26.60;10.30;;;;;;;2.45;69.20;98351.15;103517;1297;97865;-69
2022/12/09 00:26:46;;;;;;;24.80;9.90;;;;;;;2.44;69.56;98348.39;103499;1297;107549;-68
2022/12/09 00:29:14;;;;;;;24.70;10.50;;;;;;;2.41;69.40;98345.58;103471;1298;95224;-68
2022/12/09 00:31:41;;;;;;;26.20;10.40;;;;;;;2.39;69.51;98346.91;103461;1298;97885;-67
2022/12/09 00:34:12;;;;;;;23.30;9.70;;;;;;;2.39;69.39;98354.07;103451;1291;111994;-68
2022/12/09 00:36:43;;;;;;;23.80;9.10;;;;;;;2.38;69.22;98351.83;103508;1291;97117;-68
2022/12/09 00:39:11;;;;;;;21.00;9.40;;;;;;;2.37;69.36;98349.09;103427;1288;107806;-69
2022/12/09 00:41:41;;;;;;;21.10;8.40;;;;;;;2.33;69.21;98350.16;103489;1292;98612;-70
2022/12/09 00:44:12;;;;;;;22.90;9.60;;;;;;;2.29;69.30;98348.96;103498;1298;97939;-69
2022/12/09 00:46:40;;;;;;;20.80;9.00;;;;;;;2.26;69.28;98350.37;103530;1297;111554;-67
2022/12/09 00:49:13;;;;;;;23.60;10.20;;;;;;;2.25;69.35;98353.05;103449;1297;95173;-67
2022/12/09 00:51:41;;;;;;;20.50;8.50;;;;;;;2.25;69.47;98358.60;103433;1298;107605;-68
2022/12/09 00:54:09;;;;;;;22.30;8.40;;;;;;;2.24;69.45;98355.50;103483;1300;98124;-67
2022/12/09 00:56:39;;;;;;;20.50;7.60;;;;;;;2.25;69.28;98352.53;103482;1291;95094;-68
2022/12/09 00:59:07;;;;;;;22.70;9.90;;;;;;;2.23;69.17;98354.52;103515;1291;111287;-67
2022/12/09 01:01:38;;;;;;;21.00;8.50;;;;;;;2.22;69.52;98353.15;103488;1291;97886;-67
2022/12/09 01:04:09;;;;;;;20.60;8.60;;;;;;;2.23;69.41;98350.68;103460;1292;107459;-67
2022/12/09 01:06:40;;;;;;;22.70;8.80;;;;;;;2.25;69.53;98345.87;103432;1292;97974;-67
2022/12/09 01:09:12;;;;;;;19.20;8.00;;;;;;;2.27;69.52;98345.41;103447;1291;97860;-67
2022/12/09 01:11:43;;;;;;;19.30;8.00;;;;;;;2.28;69.34;98344.50;103463;1291;111809;-67
2022/12/09 01:14:12;;;;;;;21.90;8.80;;;;;;;2.28;69.38;98343.44;103366;1292;97959;-68
2022/12/09 01:16:42;;;;;;;21.00;8.60;;;;;;;2.27;69.22;98350.48;103516;1291;107352;-68
2022/12/09 01:19:13;;;;;;;23.00;8.20;;;;;;;2.25;69.30;98339.89;103456;1298;98674;-68
2022/12/09 01:21:43;;;;;;;21.70;9.20;;;;;;;2.26;69.47;98339.70;103439;1298;98447;-69
2022/12/09 01:24:15;;;;;;;24.50;9.50;;;;;;;2.26;69.01;98337.95;103504;1297;110340;-68
2022/12/09 01:26:43;;;;;;;21.30;8.70;;;;;;;2.23;69.15;98336.70;103568;1297;97925;-68
2022/12/09 01:29:16;;;;;;;22.00;8.30;;;;;;;2.20;69.35;98334.58;103495;1298;108081;-67
2022/12/09 01:31:44;;;;;;;21.30;9.10;;;;;;;2.18;69.34;98335.20;103426;1292;97887;-69
2022/12/09 01:34:15;;;;;;;23.90;10.50;;;;;;;2.15;69.60;98331.50;103491;1291;96724;-68
2022/12/09 01:36:42;;;;;;;25.40;10.30;;;;;;;2.11;69.45;98325.57;103479;1292;111729;-67
2022/12/09 01:39:13;;;;;;;25.20;11.00;;;;;;;2.08;69.04;98324.48;103409;1291;95166;-67
2022/12/09 01:41:44;;;;;;;25.10;10.80;;;;;;;2.06;69.65;98322.65;103393;1298;107898;-68
2022/12/09 01:44:15;;;;;;;25.50;10.80;;;;;;;2.06;69.43;98322.09;103393;1299;97980;-67
2022/12/09 01:46:54;;;;;;;25.40;11.00;;;;;;;2.09;69.71;98320.75;103409;1297;97896;-67
2022/12/09 01:49:46;;;;;;;27.00;11.30;;;;;;;2.11;69.21;98318.73;103409;1291;110847;-68
2022/12/09 01:52:22;;;;;;;25.50;11.90;;;;;;;2.12;69.32;98320.62;103382;1291;95125;-68
2022/12/09 01:54:54;;;;;;;26.40;10.80;;;;;;;2.12;69.38;98317.14;103401;1297;107077;-67
2022/12/09 01:57:22;;;;;;;23.00;10.40;;;;;;;2.12;69.41;98316.25;103491;1297;97979;-68
2022/12/09 01:59:51;;;;;;;24.80;10.30;;;;;;;2.13;69.46;98311.27;103474;1291;97865;-69
2022/12/09 02:02:22;;;;;;;23.90;10.90;;;;;;;2.17;69.58;98307.27;103492;1291;111775;-68
2022/12/09 02:04:56;;;;;;;25.10;10.50;;;;;;;2.21;69.28;98308.94;103514;1297;97875;-67
2022/12/09 02:07:29;;;;;;;23.40;10.10;;;;;;;2.25;69.29;98306.84;103416;1291;106754;-68
2022/12/09 02:09:58;;;;;;;18.60;7.80;;;;;;;2.28;69.31;98305.45;103494;1299;98043;-68
2022/12/09 02:12:44;;;;;;;21.70;9.50;;;;;;;2.31;69.36;98300.42;103469;1299;96252;-67
2022/12/09 02:15:38;;;;;;;20.10;9.00;;;;;;;2.34;69.47;98295.55;103440;1291;111765;-68
2022/12/09 02:18:21;;;;;;;24.40;9.80;;;;;;;2.36;69.25;98293.13;103412;1291;97905;-67
2022/12/09 02:21:12;;;;;;;23.30;8.80;;;;;;;2.39;69.26;98291.25;103361;1297;108111;-68
2022/12/09 02:23:55;;;;;;;27.20;9.50;;;;;;;2.42;69.42;98287.09;103412;1291;97873;-67
2022/12/09 02:26:43;;;;;;;22.10;9.80;;;;;;;2.44;69.21;98284.70;103505;1291;97868;-68
2022/12/09 02:29:49;;;;;;;21.60;8.70;;;;;;;2.46;69.03;98287.19;103413;1299;112274;-68
2022/12/09 02:32:37;;;;;;;22.00;8.90;;;;;;;2.47;69.09;98286.64;103389;1291;96191;-68
2022/12/09 02:35:17;;;;;;;22.10;9.30;;;;;;;2.49;69.39;98286.20;103528;1294;107551;-70
2022/12/09 02:38:01;;;;;;;23.10;9.50;;;;;;;2.51;69.29;98284.69;103525;1291;96490;-70
2022/12/09 02:40:37;;;;;;;21.40;9.10;;;;;;;2.52;69.19;98287.93;103476;1298;97952;-69
2022/12/09 02:43:09;;;;;;;24.00;10.20;;;;;;;2.55;69.26;98286.60;103476;1292;111583;-67
2022/12/09 02:45:42;;;;;;;24.20;10.60;;;;;;;2.55;69.38;98289.77;103531;1297;97971;-68
2022/12/09 02:48:15;;;;;;;24.80;10.70;;;;;;;2.55;69.17;98286.09;103520;1291;107381;-70
2022/12/09 02:50:48;;;;;;;22.60;9.90;;;;;;;2.53;69.26;98278.64;103504;1297;97978;-68
2022/12/09 02:53:19;;;;;;;23.20;9.90;;;;;;;2.51;69.03;98280.29;103507;1291;97840;-67
2022/12/09 02:55:51;;;;;;;22.50;9.40;;;;;;;2.50;69.22;98276.85;103489;1292;111267;-68
2022/12/09 02:58:19;;;;;;;21.60;8.00;;;;;;;2.48;69.14;98276.28;103562;1292;97905;-67
2022/12/09 03:00:50;;;;;;;22.70;8.50;;;;;;;2.42;69.03;98275.18;103505;1291;108123;-68
2022/12/09 03:03:21;;;;;;;21.30;8.40;;;;;;;2.40;69.01;98275.14;103519;1298;97911;-68
2022/12/09 03:05:50;;;;;;;19.80;8.30;;;;;;;2.37;69.04;98280.69;103532;1292;97874;-68
2022/12/09 03:08:28;;;;;;;22.10;9.30;;;;;;;2.34;68.88;98283.30;103521;1291;112611;-68
2022/12/09 03:11:10;;;;;;;21.00;9.10;;;;;;;2.30;69.21;98276.30;103402;1297;95144;-69
2022/12/09 03:14:11;;;;;;;21.90;8.10;;;;;;;2.28;69.01;98278.02;103441;1294;107870;-68
2022/12/09 03:16:48;;;;;;;24.30;9.40;;;;;;;2.21;69.10;98276.05;103452;1299;96346;-67
2022/12/09 03:19:55;;;;;;;22.30;8.70;;;;;;;2.13;69.19;98279.46;103470;1298;97878;-67
2022/12/09 03:22:27;;;;;;;22.00;8.30;;;;;;;2.03;69.19;98274.89;103463;1292;112909;-67
2022/12/09 03:25:01;;;;;;;21.20;8.40;;;;;;;1.96;69.08;98267.58;103471;1291;97833;-68
2022/12/09 03:28:00;;;;;;;22.50;9.00;;;;;;;1.91;69.17;98267.07;103364;1292;108101;-67
2022/12/09 03:30:34;;;;;;;21.40;8.60;;;;;;;1.86;69.31;98266.81;103374;1292;97956;-67
2022/12/09 03:33:05;;;;;;;24.60;8.80;;;;;;;1.83;69.29;98269.42;103489;1291;96611;-67
2022/12/09 03:35:41;;;;;;;23.20;9.60;;;;;;;1.80;68.95;98269.58;103378;1279;111806;-67
2022/12/09 03:38:15;;;;;;;22.40;9.30;;;;;;;1.77;69.16;98272.14;103456;1295;97835;-67
2022/12/09 03:40:45;;;;;;;;;;;;;;;1.74;68.91;98275.95;103370;1294;107182;-67
2022/12/09 03:43:26;;;;;;;19.90;7.80;;;;;;;1.72;69.11;98269.75;103407;1298;97857;-68
2022/12/09 03:45:59;;;;;;;22.80;8.90;;;;;;;1.73;69.16;98269.20;103324;1301;95201;-67
2022/12/09 03:48:30;;;;;;;21.10;8.70;;;;;;;1.74;69.08;98268.29;103395;1292;111244;-66
2022/12/09 03:51:20;;;;;;;22.00;8.30;;;;;;;1.77;69.33;98270.41;103437;1291;97891;-67
2022/12/09 03:53:54;;;;;;;21.00;8.00;;;;;;;1.81;69.47;98275.98;103373;1302;107170;-69
2022/12/09 03:56:38;;;;;;;19.60;7.70;;;;;;;1.85;69.62;98272.99;103335;1298;97878;-68
2022/12/09 03:59:13;;;;;;;25.40;8.50;;;;;;;1.84;69.26;98270.95;103451;1299;96936;-68
2022/12/09 04:01:44;;;;;;;19.40;8.00;;;;;;;1.81;69.35;98270.21;103341;1297;110787;-68
2022/12/09 04:04:16;;;;;;;19.50;8.00;;;;;;;1.78;69.13;98273.31;103388;1292;97826;-68
2022/12/09 04:06:50;;;;;;;21.70;8.10;;;;;;;1.77;69.22;98273.55;103433;1297;108194;-68
2022/12/09 04:09:21;;;;;;;;;;;;;;;1.75;69.07;98271.70;103429;1291;97888;-68
2022/12/09 04:11:49;;;;;;;17.20;6.90;;;;;;;1.73;69.22;98267.61;103396;1299;97761;-68
2022/12/09 04:14:20;;;;;;;20.50;7.50;;;;;;;1.73;69.17;98270.22;103413;1299;111786;-66
2022/12/09 04:16:50;;;;;;;18.30;7.80;;;;;;;1.73;69.23;98270.41;103501;1298;95245;-67
2022/12/09 04:19:21;;;;;;;19.40;8.10;;;;;;;1.72;69.12;98268.70;103478;1291;108054;-67
2022/12/09 04:21:49;;;;;;;21.20;8.80;;;;;;;1.70;69.42;98268.64;103440;1299;96938;-68
2022/12/09 04:24:20;;;;;;;20.60;8.50;;;;;;;1.67;69.18;98270.73;103502;1291;97960;-67
2022/12/09 04:26:50;;;;;;;23.10;7.10;;;;;;;1.62;68.87;98263.08;103343;1298;112243;-67
2022/12/09 04:29:18;;;;;;;21.10;7.40;;;;;;;1.60;68.97;98260.74;103387;1298;97856;-66
2022/12/09 04:31:47;;;;;;;19.50;7.40;;;;;;;1.58;69.12;98255.79;103386;1292;107218;-67
2022/12/09 04:34:17;;;;;;;19.10;7.90;;;;;;;1.59;69.24;98258.88;103464;1305;97986;-68
2022/12/09 04:36:50;;;;;;;22.10;8.90;;;;;;;1.59;69.30;98253.81;103486;1292;97918;-67
2022/12/09 04:39:18;;;;;;;20.30;7.30;;;;;;;1.58;69.23;98254.02;103483;1297;111260;-67
2022/12/09 04:41:49;;;;;;;20.60;7.80;;;;;;;1.57;69.21;98257.05;103404;1299;97968;-66
2022/12/09 04:44:17;;;;;;;20.80;8.30;;;;;;;1.55;69.17;98260.30;103437;1294;106152;-65
2022/12/09 04:46:44;;;;;;;20.30;7.60;;;;;;;1.52;69.04;98263.41;103321;1295;136009;-68
2022/12/09 04:49:12;;;;;;;23.40;8.40;;;;;;;1.51;69.28;98261.39;103293;1299;96951;-67
2022/12/09 04:51:40;;;;;;;17.90;7.40;;;;;;;1.51;69.26;98262.41;103346;1298;111522;-68
2022/12/09 04:54:14;;;;;;;20.10;9.10;;;;;;;1.51;69.17;98258.74;103394;1297;98494;-67
2022/12/09 04:56:45;;;;;;;18.90;7.30;;;;;;;1.50;69.32;98259.65;103392;1291;108231;-67
2022/12/09 04:59:13;;;;;;;19.60;7.40;;;;;;;1.48;69.23;98265.33;103518;1298;97997;-69
2022/12/09 05:01:41;;;;;;;23.10;8.00;;;;;;;1.47;69.36;98269.05;103477;1298;98675;-67
2022/12/09 05:04:11;;;;;;;20.60;8.00;;;;;;;1.47;69.30;98268.34;103436;1291;111773;-67
2022/12/09 05:06:42;;;;;;;20.50;8.00;;;;;;;1.47;69.28;98265.56;103338;1291;95272;-67
2022/12/09 05:09:14;;;;;;;22.60;9.10;;;;;;;1.47;69.13;98266.26;103334;1291;108136;-68
2022/12/09 05:11:42;;;;;;;22.30;9.80;;;;;;;1.47;69.09;98263.64;103303;1298;97989;-71
2022/12/09 05:14:11;;;;;;;22.60;9.10;;;;;;;1.47;69.18;98262.92;103454;1291;96260;-69
2022/12/09 05:16:41;;;;;;;21.30;8.70;;;;;;;1.49;69.30;98262.64;103468;1299;111722;-68
2022/12/09 05:19:12;;;;;;;21.20;9.30;;;;;;;1.52;69.21;98263.95;103365;1291;96382;-70
2022/12/09 05:21:43;;;;;;;22.40;10.20;;;;;;;1.52;69.06;98267.27;103465;1298;106153;-70
2022/12/09 05:24:13;;;;;;;24.60;10.30;;;;;;;1.50;69.35;98272.58;103409;1291;98512;-69
2022/12/09 05:26:43;;;;;;;26.10;11.10;;;;;;;1.49;69.20;98273.86;103459;1292;96274;-69
2022/12/09 05:29:12;;;;;;;25.00;10.30;;;;;;;1.47;69.42;98274.12;103416;1291;111784;-69
2022/12/09 05:31:51;;;;;;;25.70;10.80;;;;;;;1.43;69.31;98269.92;103400;1298;97880;-70
2022/12/09 05:34:20;;;;;;;23.10;10.40;;;;;;;1.39;69.43;98276.44;103285;1292;108051;-69
2022/12/09 05:36:51;;;;;;;23.40;10.40;;;;;;;1.34;69.21;98279.45;103280;1301;98029;-70
2022/12/09 05:39:21;;;;;;;24.40;10.70;;;;;;;1.31;69.47;98278.58;104742;1292;97854;-69
2022/12/09 05:41:51;;;;;;;23.50;10.20;;;;;;;1.27;69.32;98277.14;104449;1297;111852;-68
2022/12/09 05:44:20;;;;;;;24.50;9.70;;;;;;;1.24;69.43;98271.02;103399;1297;97964;-69
2022/12/09 05:46:48;;;;;;;24.60;10.40;;;;;;;1.23;69.24;98271.42;103380;1292;107509;-69
2022/12/09 05:49:19;;;;;;;24.40;11.00;;;;;;;1.23;69.42;98266.88;103363;1293;97943;-68
2022/12/09 05:51:49;;;;;;;27.40;11.40;;;;;;;1.22;69.05;98267.10;104519;1299;95377;-69
2022/12/09 05:54:17;;;;;;;24.50;10.90;;;;;;;1.23;69.34;98267.05;104799;1299;111756;-68
2022/12/09 05:56:46;;;;;;;26.20;10.80;;;;;;;1.25;69.74;98274.83;103269;1297;96287;-69
2022/12/09 05:59:17;;;;;;;23.80;10.20;;;;;;;1.27;69.41;98272.09;103400;1292;108569;-70
2022/12/09 06:01:46;;;;;;;26.10;10.50;;;;;;;1.29;69.54;98271.13;105130;1292;95809;-68
2022/12/09 06:04:17;;;;;;;25.80;10.90;;;;;;;1.31;69.76;98270.31;104901;1305;95496;-67
2022/12/09 06:06:46;;;;;;;27.40;11.50;;;;;;;1.32;69.45;98273.41;103435;1297;111246;-69
2022/12/09 06:09:16;;;;;;;27.40;11.30;;;;;;;1.34;69.45;98270.34;103393;1291;95198;-70
2022/12/09 06:11:45;;;;;;;24.90;10.80;;;;;;;1.36;69.53;98274.14;103387;1292;107337;-68
2022/12/09 06:14:16;;;;;;;28.30;12.40;;;;;;;1.36;69.27;98274.51;103389;1297;97934;-68
2022/12/09 06:16:46;;;;;;;26.70;11.80;;;;;;;1.34;69.29;98274.77;103390;1297;97906;-68
2022/12/09 06:19:17;;;;;;;32.40;13.70;;;;;;;1.32;69.61;98274.11;103369;1297;111914;-67
2022/12/09 06:21:48;;;;;;;28.60;12.00;;;;;;;1.30;69.80;98269.66;103424;1296;96418;-68
2022/12/09 06:24:16;;;;;;;27.40;12.20;;;;;;;1.30;69.78;98271.08;103192;1298;107529;-68
2022/12/09 06:26:48;;;;;;;29.10;13.50;;;;;;;1.30;69.66;98271.94;103316;1298;96408;-69
2022/12/09 06:29:16;;;;;;;28.50;11.20;;;;;;;1.31;69.77;98275.75;103454;1298;97891;-69
2022/12/09 06:31:49;;;;;;;22.90;10.90;;;;;;;1.32;69.88;98276.41;103410;1299;112276;-68
2022/12/09 06:34:17;;;;;;;26.70;12.20;;;;;;;1.34;70.12;98275.96;103335;1297;98559;-68
2022/12/09 06:36:48;;;;;;;26.70;12.20;;;;;;;1.36;69.87;98275.17;103372;1298;107591;-69
2022/12/09 06:39:16;;;;;;;29.20;13.70;;;;;;;1.38;69.88;98273.67;103401;1299;96276;-70
2022/12/09 06:41:47;;;;;;;33.00;15.00;;;;;;;1.39;69.87;98271.54;103395;1298;97885;-69
2022/12/09 06:44:17;;;;;;;27.40;12.30;;;;;;;1.40;69.93;98272.03;103372;1299;111387;-68
2022/12/09 06:46:51;;;;;;;30.00;13.60;;;;;;;1.41;70.12;98275.11;103391;1291;97900;-68
2022/12/09 06:49:22;;;;;;;27.40;12.90;;;;;;;1.42;70.26;98277.68;103402;1298;107949;-68
2022/12/09 06:51:52;;;;;;;34.50;14.30;;;;;;;1.42;69.87;98279.58;103521;1301;97952;-67
2022/12/09 06:54:25;;;;;;;38.50;14.70;;;;;;;1.43;69.78;98281.09;103351;1299;96328;-68
2022/12/09 06:56:53;;;;;;;29.60;14.10;;;;;;;1.44;69.79;98282.14;103327;1298;111906;-68
2022/12/09 06:59:24;;;;;;;31.10;14.30;;;;;;;1.43;70.04;98282.54;103370;1297;97847;-67
2022/12/09 07:01:53;;;;;;;38.50;15.10;;;;;;;1.43;69.82;98285.13;103336;1292;109041;-68
2022/12/09 07:04:23;;;;;;;34.60;14.60;;;;;;;1.42;70.16;98278.20;103321;1305;98444;-69
2022/12/09 07:06:54;;;;;;;33.30;15.00;;;;;;;1.42;70.08;98277.18;103351;1299;97969;-68
2022/12/09 07:09:23;;;;;;;34.70;14.50;;;;;;;1.41;70.30;98281.05;103349;1284;111765;-67
2022/12/09 07:11:52;;;;;;;28.50;13.30;;;;;;;1.42;70.04;98287.45;103395;1297;96493;-68
2022/12/09 07:14:20;;;;;;;53.40;17.70;;;;;;;1.44;70.21;98289.83;103372;1297;108215;-68
2022/12/09 07:16:49;;;;;;;54.00;21.10;;;;;;;1.46;70.30;98292.35;103293;1301;97967;-68
2022/12/09 07:19:21;;;;;;;44.60;17.30;;;;;;;1.47;70.36;98295.60;103369;1298;97865;-69
2022/12/09 07:21:50;;;;;;;44.40;16.40;;;;;;;1.48;70.23;98296.59;103392;1291;110810;-68
2022/12/09 07:24:20;;;;;;;34.50;14.90;;;;;;;1.49;70.06;98296.91;103380;1292;96343;-68
2022/12/09 07:26:49;;;;;;;28.50;13.30;;;;;;;1.51;70.32;98291.05;103314;1298;108168;-68
2022/12/09 07:29:19;;;;;;;27.50;14.10;;;;;;;1.55;70.63;98294.18;103408;1291;97858;-69
2022/12/09 07:31:50;;;;;;;26.80;13.10;;;;;;;1.58;70.71;98299.98;103399;1297;96336;-68
2022/12/09 07:34:19;;;;;;;26.30;12.70;;;;;;;1.61;70.63;98303.89;103455;1291;111692;-68
2022/12/09 07:36:49;;;;;;;25.90;12.50;;;;;;;1.63;70.54;98304.27;103467;1298;96243;-73
2022/12/09 07:39:21;;;;;;;27.20;11.90;;;;;;;1.64;70.76;98309.96;103404;1307;108101;-69
2022/12/09 07:41:56;;;;;;;25.90;12.80;;;;;;;1.65;70.58;98313.10;103349;1298;95543;-68
2022/12/09 07:44:27;;;;;;;25.90;11.40;;;;;;;1.68;70.69;98305.08;103377;1301;97852;-70
2022/12/09 07:46:58;;;;;;;27.70;12.60;;;;;;;1.71;70.89;98296.36;103449;1299;111169;-68
2022/12/09 07:49:27;;;;;;;28.60;12.70;;;;;;;1.75;70.81;98293.57;103400;1298;97656;-68
2022/12/09 07:51:57;;;;;;;23.70;11.50;;;;;;;1.81;70.98;98286.14;103430;1298;107107;-70
2022/12/09 07:54:27;;;;;;;27.10;13.10;;;;;;;1.84;70.78;98285.25;103482;1298;97886;-69
2022/12/09 07:56:55;;;;;;;26.20;12.80;;;;;;;1.88;70.42;98274.92;103471;1298;97952;-68
2022/12/09 07:59:25;;;;;;;27.60;13.30;;;;;;;1.93;71.06;98273.27;103373;1297;111498;-68
2022/12/09 08:01:56;;;;;;;24.20;12.30;;;;;;;1.99;70.75;98281.39;103406;1302;97974;-69
2022/12/09 08:04:35;;;;;;;25.70;14.10;;;;;;;2.05;71.29;98283.02;103437;1291;108200;-70
2022/12/09 08:07:06;;;;;;;27.10;13.30;;;;;;;2.11;71.03;98280.77;103386;1300;98021;-70
2022/12/09 08:09:35;;;;;;;27.70;14.00;;;;;;;2.16;71.12;98280.20;103408;1299;97912;-70
2022/12/09 08:12:06;;;;;;;26.90;12.90;;;;;;;2.21;71.08;98286.91;103437;1300;111776;-70
2022/12/09 08:14:37;;;;;;;28.90;12.60;;;;;;;2.28;71.18;98289.39;103396;1281;97863;-71
2022/12/09 08:17:05;;;;;;;24.60;12.60;;;;;;;2.32;71.00;98287.95;103513;1291;107527;-70
2022/12/09 08:19:36;;;;;;;28.00;13.20;;;;;;;2.35;71.07;98279.58;103436;1291;97877;-69
2022/12/09 08:22:08;;;;;;;27.90;13.50;;;;;;;2.40;71.29;98276.00;103483;1299;97948;-70
2022/12/09 08:24:36;;;;;;;26.00;13.00;;;;;;;2.43;71.27;98279.17;103477;1291;111795;-70
2022/12/09 08:27:07;;;;;;;27.10;12.80;;;;;;;2.48;70.96;98279.77;103511;1291;96201;-70
2022/12/09 08:29:39;;;;;;;26.00;12.40;;;;;;;2.53;71.18;98280.54;103490;1298;108103;-70
2022/12/09 08:32:09;;;;;;;26.10;13.50;;;;;;;2.56;71.15;98282.86;103473;1299;97856;-69
2022/12/09 08:34:40;;;;;;;27.90;13.70;;;;;;;2.59;70.90;98285.33;103390;1299;95205;-71
2022/12/09 08:37:08;;;;;;;26.90;13.40;;;;;;;2.63;71.35;98284.77;103431;1291;111748;-70
2022/12/09 08:39:37;;;;;;;27.80;14.40;;;;;;;2.69;71.09;98287.80;103397;1291;97862;-70
2022/12/09 08:42:08;;;;;;;28.90;14.70;;;;;;;2.73;71.25;98281.08;103375;1291;108104;-70
2022/12/09 08:44:39;;;;;;;29.00;14.80;;;;;;;2.84;71.30;98274.71;103453;1291;97877;-69
2022/12/09 08:47:10;;;;;;;26.30;13.40;;;;;;;2.98;71.37;98271.00;103438;1302;96387;-70
2022/12/09 08:49:39;;;;;;;28.30;14.90;;;;;;;3.12;71.45;98267.10;103459;1299;110784;-71
2022/12/09 08:52:10;;;;;;;24.60;12.70;;;;;;;3.26;71.22;98263.34;103496;1291;97832;-72
2022/12/09 08:54:41;;;;;;;25.00;13.50;;;;;;;3.46;71.30;98262.27;103388;1298;108125;-69
2022/12/09 08:57:12;;;;;;;27.80;13.60;;;;;;;3.65;71.28;98259.40;103533;1300;97996;-70
2022/12/09 08:59:43;;;;;;;27.80;13.90;;;;;;;3.90;71.48;98259.60;103524;1294;95219;-69
2022/12/09 09:02:15;;;;;;;27.00;13.30;;;;;;;4.12;71.33;98256.89;103472;1299;112001;-67
2022/12/09 09:04:45;;;;;;;25.60;13.30;;;;;;;4.28;71.20;98251.22;103464;1293;97932;-70
2022/12/09 09:07:13;;;;;;;26.10;12.70;;;;;;;4.43;71.21;98252.92;103414;1298;107829;-70
2022/12/09 09:09:45;;;;;;;25.30;12.30;;;;;;;4.63;71.04;98255.09;103402;1292;97857;-70
2022/12/09 09:12:13;;;;;;;26.50;13.60;;;;;;;4.78;70.90;98250.98;103446;1299;96978;-70
2022/12/09 09:14:44;;;;;;;26.90;13.50;;;;;;;4.93;71.02;98251.67;103418;1292;111128;-69
2022/12/09 09:17:15;;;;;;;25.90;12.60;;;;;;;5.09;70.79;98244.85;103508;1295;97833;-68
2022/12/09 09:19:43;;;;;;;25.30;12.70;;;;;;;5.21;70.68;98246.04;103378;1293;107435;-68
2022/12/09 09:22:17;;;;;;;23.00;11.30;;;;;;;5.26;70.70;98245.38;103489;1291;97860;-68
2022/12/09 09:24:45;;;;;;;22.90;11.50;;;;;;;5.23;70.67;98236.62;103514;1297;95132;-70
2022/12/09 09:27:14;;;;;;;23.20;10.50;;;;;;;5.08;70.59;98233.66;103532;1298;111851;-74
2022/12/09 09:29:45;;;;;;;25.90;12.30;;;;;;;4.91;70.21;98235.63;103502;1291;95211;-69
2022/12/09 09:32:16;;;;;;;23.80;12.20;;;;;;;4.70;70.57;98233.23;103426;1297;107502;-69
2022/12/09 09:34:49;;;;;;;24.70;12.40;;;;;;;4.57;70.68;98229.26;103428;1291;97858;-69
2022/12/09 09:37:20;;;;;;;24.40;11.20;;;;;;;4.44;70.69;98231.45;103447;1299;98026;-70
2022/12/09 09:39:51;;;;;;;25.80;11.50;;;;;;;4.35;70.67;98233.22;103530;1291;110436;-70
2022/12/09 09:42:29;;;;;;;26.60;12.70;;;;;;;4.26;70.93;98230.94;103528;1285;95578;-69
2022/12/09 09:45:01;;;;;;;25.20;12.40;;;;;;;4.19;70.90;98225.59;105220;1298;107557;-70
2022/12/09 09:47:42;;;;;;;23.30;11.50;;;;;;;4.09;70.96;98230.01;103434;1297;97962;-69
2022/12/09 09:50:27;;;;;;;26.40;13.40;;;;;;;3.99;70.90;98235.86;103584;1292;97981;-69
2022/12/09 09:52:55;;;;;;;25.20;11.40;;;;;;;3.94;71.00;98240.23;103494;1298;111185;-70
2022/12/09 09:55:37;;;;;;;23.10;11.20;;;;;;;3.86;71.09;98236.48;103436;1292;97886;-73
2022/12/09 09:58:37;;;;;;;23.00;11.30;;;;;;;3.81;71.05;98228.69;103499;1299;107521;-70
2022/12/09 10:01:14;;;;;;;23.40;11.80;;;;;;;3.82;71.11;98224.79;103435;1305;97977;-69
2022/12/09 10:04:11;;;;;;;24.10;11.30;;;;;;;3.92;71.23;98220.48;103408;1292;97960;-70
2022/12/09 10:06:50;;;;;;;23.10;11.00;;;;;;;4.16;71.28;98216.13;103410;1292;111147;-72
2022/12/09 10:09:33;;;;;;;24.30;10.50;;;;;;;4.35;71.28;98212.02;103481;1292;97878;-74
2022/12/09 10:12:23;;;;;;;25.20;11.60;;;;;;;4.40;71.03;98214.85;103475;1295;107496;-69
2022/12/09 10:15:10;;;;;;;25.40;11.30;;;;;;;4.36;70.91;98211.61;103489;1301;98006;-69
2022/12/09 10:17:54;;;;;;;23.90;12.20;;;;;;;4.20;70.68;98213.77;103498;1294;97892;-70
2022/12/09 10:20:29;;;;;;;24.60;12.50;;;;;;;4.05;70.45;98210.98;103516;1291;111737;-71
2022/12/09 10:23:08;;;;;;;23.90;11.50;;;;;;;3.93;70.86;98209.58;103427;1291;97936;-69
2022/12/09 10:25:52;;;;;;;26.50;12.50;;;;;;;3.89;70.81;98206.81;103462;1294;105751;-68
2022/12/09 10:28:40;;;;;;;25.10;12.00;;;;;;;3.91;70.81;98210.21;103243;1291;96549;-70
2022/12/09 10:31:12;;;;;;;25.70;12.00;;;;;;;3.90;70.88;98206.61;103481;1295;97929;-69
2022/12/09 10:33:41;;;;;;;23.50;11.00;;;;;;;3.91;70.94;98207.93;103465;1299;109893;-70
2022/12/09 10:36:23;;;;;;;25.80;11.50;;;;;;;3.94;70.96;98204.64;103467;1291;95167;-68
2022/12/09 10:39:01;;;;;;;23.30;10.90;;;;;;;3.93;70.90;98204.33;103535;1299;106682;-70
2022/12/09 10:44:27;;;;;;;23.70;10.50;;;;;;;3.93;70.95;98192.55;103453;1295;95282;-69
2022/12/09 10:47:23;;;;;;;23.90;11.40;;;;;;;3.95;70.86;98190.69;103403;1298;110812;-69
2022/12/09 10:49:58;;;;;;;25.10;9.90;;;;;;;3.97;70.74;98187.63;103409;1302;97869;-69
2022/12/09 10:52:42;;;;;;;23.70;11.90;;;;;;;3.92;70.80;98183.17;103377;1294;107201;-69
2022/12/09 10:55:30;;;;;;;23.70;11.30;;;;;;;3.84;70.80;98185.16;103233;1301;98016;-69
2022/12/09 10:58:32;;;;;;;24.20;11.30;;;;;;;3.80;70.80;98184.20;103264;1301;97896;-69
2022/12/09 11:01:14;;;;;;;23.30;10.90;;;;;;;3.80;71.00;98178.58;103308;1300;111392;-71
2022/12/09 11:03:48;;;;;;;22.60;10.00;;;;;;;3.81;70.91;98178.88;103397;1301;97869;-69
2022/12/09 11:06:25;;;;;;;22.60;10.40;;;;;;;3.81;70.88;98179.25;103446;1292;106347;-69
2022/12/09 11:08:58;;;;;;;25.80;11.60;;;;;;;3.80;70.94;98181.93;103408;1291;98508;-69
2022/12/09 11:11:45;;;;;;;24.60;11.20;;;;;;;3.82;71.07;98182.17;103383;1299;97763;-69
2022/12/09 11:14:23;;;;;;;25.50;11.00;;;;;;;3.83;70.84;98185.27;103436;1292;111250;-69
2022/12/09 11:16:58;;;;;;;25.00;11.00;;;;;;;3.81;70.87;98190.97;103405;1299;95135;-70
2022/12/09 11:19:37;;;;;;;25.00;11.80;;;;;;;3.82;71.07;98191.48;103422;1307;106617;-70
2022/12/09 11:22:32;;;;;;;25.60;11.00;;;;;;;3.83;70.98;98191.21;103367;1295;98032;-70
2022/12/09 11:25:25;;;;;;;22.10;10.10;;;;;;;3.86;71.04;98188.80;103512;1294;98058;-69
2022/12/09 11:28:05;;;;;;;22.60;11.00;;;;;;;3.90;71.07;98186.44;103500;1298;111622;-69
2022/12/09 11:30:38;;;;;;;25.30;11.30;;;;;;;3.91;71.01;98187.61;103465;1299;97946;-70
2022/12/09 11:33:36;;;;;;;23.30;10.80;;;;;;;3.91;70.90;98184.63;103492;1292;107988;-69
2022/12/09 11:36:08;;;;;;;26.00;11.60;;;;;;;3.92;71.13;98180.35;103400;1299;98417;-70
2022/12/09 11:38:51;;;;;;;24.50;11.00;;;;;;;3.93;71.02;98180.82;103421;1298;97883;-70
2022/12/09 11:44:34;;;;;;;23.30;11.20;;;;;;;3.94;70.95;98183.95;103405;1292;97695;-71
2022/12/09 11:47:10;;;;;;;23.90;10.90;;;;;;;3.92;71.02;98192.77;103463;1284;107344;-70
2022/12/09 11:49:53;;;;;;;23.30;11.70;;;;;;;3.92;70.91;98191.78;103430;1292;98541;-70
2022/12/09 11:52:25;;;;;;;27.20;12.30;;;;;;;3.91;70.98;98191.29;103520;1297;97962;-70